Pos.Doss.NomPrenomTempsVit.Moy.Allure Pos. cat�gCat�gorie Points Club
1 3925 DEMIRKAZAN MIKAIL 00:34:20 16.78 00:03:35 1Séniors 1000 JOG PLUS
2 3956 LAMOLINE GUILLAUME 00:35:02 16.44 00:03:39 2Séniors 992 RFCL
3 1 PHILIPPE PATRICK 00:35:09 16.39 00:03:40 1Vétérans 2 984 JOG IN ATTITUDE
4 3942 DIDIER MATHIEU 00:35:15 16.34 00:03:40 3Séniors 976 V3
5 3941 DIDIER PIERRE 00:35:32 16.21 00:03:42 4Séniors 968 V3
6 3939 PURPER GAULTIER 00:35:44 16.12 00:03:43 5Séniors 960 LIFESPORT
7 3986 LESAGE MATHIEU 00:36:43 15.69 00:03:49 6Séniors 952
8 3961 MAES LAURENT 00:37:59 15.16 00:03:57 1Vétérans 1 944 NEUPRE AC
9 3960 LARUE ARNAUD 00:38:13 15.07 00:03:59 7Séniors 937 JIA
10 3954 FAYET THOMAS 00:38:55 14.8 00:04:03 8Séniors 929
11 6 EVRARD AMAURY 00:39:02 14.76 00:04:04 2Vétérans 1 921 TEAM SOMJA
12 3926 OLEFS ALPHA 00:39:19 14.65 00:04:06 9Séniors 913
13 3996 RICHEL LUDOVIC 00:39:24 14.62 00:04:06 10Séniors 905 JIA
14 3918 HECK MARC 00:39:44 14.5 00:04:08 3Vétérans 1 897
15 3968 VITA GAETANO 00:39:58 14.41 00:04:010 4Vétérans 1 889
16 7 GARIN YVES 00:40:06 14.36 00:04:11 5Vétérans 1 881 TEAM SOMJA
17 132 POLLET VINCENT 00:40:25 14.25 00:04:13 6Vétérans 1 873 JOG IN ATTITUDE
18 3965 WUILLAUME LAURENT 00:40:29 14.23 00:04:13 11Séniors 865
19 41 DEBATTY HERVÉ 00:40:32 14.21 00:04:13 7Vétérans 1 857 PAS DE CLUB
20 3938 NICOSIA LIONEL 00:40:39 14.17 00:04:14 12Séniors 849 LIFESPORT
21 3967 BOUDRON JEAN BAPTISTE 00:41:32 13.87 00:04:20 8Vétérans 1 841 JOG IN ATTITUDE
22 3978 BOSMANS ERIC 00:41:36 13.85 00:04:20 2Vétérans 2 833 SER ATHL
23 88 DEMIRCI ERSEN 00:41:50 13.77 00:04:21 13Séniors 825 PAS DE CLUB
24 115 GUISSART ALAIN 00:42:27 13.57 00:04:25 3Vétérans 2 817 PAS DE CLUB
25 3958 MICHEL XAVIER 00:42:34 13.53 00:04:26 14Séniors 810 RFAC
26 4 BOLLEN PASCAL 00:42:51 13.44 00:04:28 1Vétérans 3 802 SERAING ATHLETISME
27 3950 DEVILLET GUENAEL 00:42:51 13.44 00:04:28 9Vétérans 1 794 TRI TRA RAID
28 137 DEJARDIN FRED 00:43:00 13.4 00:04:29 4Vétérans 2 786 PAS DE CLUB
29 3936 ROUSSEAU DAVID 00:43:07 13.36 00:04:29 10Vétérans 1 778 AXA TEAM
30 122 COOSEMANS ROMUALD 00:43:43 13.18 00:04:33 15Séniors 770 JOG IN ATTITUDE
31 3914 MARTEAU VALENTIN 00:43:56 13.11 00:04:35 16Séniors 762
32 3977 DISPAS CELINE 00:44:13 13.03 00:04:36 1Ainées 1 754 JIA
33 3979 DIERENS DENNIS 00:44:22 12.98 00:04:37 5Vétérans 2 746 JIA
34 3993 DENEUMOSTIER JEREMIE 00:44:30 12.94 00:04:38 11Vétérans 1 738 FAC
35 3930 BIERTLES CYMON 00:44:35 12.92 00:04:39 6Vétérans 2 730 TIMS
36 3959 CARRE CLAUDE 00:44:47 12.86 00:04:40 7Vétérans 2 722 LIGNE 69
37 168 CHUDYBA JEAN-MARIE 00:44:56 12.82 00:04:41 8Vétérans 2 714 RUN IN LIEGE
38 68 BALSAN LUC 00:45:02 12.79 00:04:41 9Vétérans 2 706 ATHLETISME MEHAGNE CLUB
39 3951 DEVOS OLIVIER 00:45:02 12.79 00:04:41 12Vétérans 1 698
40 44 EUGENE MAXIME 00:45:21 12.7 00:04:43 13Vétérans 1 690 BIERBERGEN
41 78 MULLENS LAURENT 00:45:43 12.6 00:04:46 14Vétérans 1 683 LGS
42 207 MATAGNE GEOFFREY 00:45:59 12.53 00:04:47 17Séniors 675
43 127 AKKERMANS CHRISTIAN 00:46:04 12.5 00:04:48 2Vétérans 3 667 JOG IN ATTITUDE
44 3919 NEUTEELERS ERIC 00:46:12 12.47 00:04:49 3Vétérans 3 659 SPRIMONT
45 136 PERIN MARC 00:46:24 12.41 00:04:50 10Vétérans 2 651
46 3972 DEWANCKELE CEDRIC 00:46:29 12.39 00:04:51 15Vétérans 1 643
47 3933 IANNIELLO JIMMY 00:46:33 12.37 00:04:51 18Séniors 635
48 3917 HARDY LAURENT 00:47:00 12.26 00:04:54 16Vétérans 1 627
49 3988 DELOGE JEAN FRANCOIS 00:47:11 12.21 00:04:55 17Vétérans 1 619
50 141 ISABELLA MARTINA 00:47:15 12.19 00:04:55 2Ainées 1 611 JOG IN ATTITUDE
51 114 LAMCHACHTI KALID 00:47:15 12.19 00:04:55 18Vétérans 1 603 JOG IN ATTITUDE
52 3980 HANSEZ SEBASTIEN 00:47:54 12.03 00:04:59 19Séniors 595
53 54 DUSSARD MAYA 00:48:00 12 00:05:00 1Espoirs D 587 JOG IN ATTITUDE
54 261 DELHEZ CLAUDE 00:48:04 11.98 00:05:00 4Vétérans 3 579 RUN IN LIEGE
55 205 FREDERICH DOMINIQUE 00:48:14 11.94 00:05:01 1Ainées 2 571
56 3992 DENDAL DIDIER 00:48:30 11.88 00:05:03 11Vétérans 2 563
57 3937 PILLITTERI CARMELO 00:48:32 11.87 00:05:03 12Vétérans 2 556
58 406 KEVELAER BÉATRICE 00:48:54 11.78 00:05:06 2Ainées 2 548 TEAM SOMJA
59 36 BYNENS NICOLAS 00:48:56 11.77 00:05:06 5Vétérans 3 540 JUPRELLE JOGGING
60 59 BURNIAT OLIVIER 00:49:20 11.68 00:05:08 20Séniors 532 AUTRE
61 135 RIGO CHRISTOPHE 00:49:22 11.67 00:05:09 19Vétérans 1 524 JOG IN ATTITUDE
62 3928 DEMIRCI KENAN 00:49:28 11.64 00:05:09 6Vétérans 3 516
63 3947 JENNEN PATRICK 00:49:35 11.62 00:05:010 13Vétérans 2 508
64 3934 NEUTELINGS THIBAULT 00:49:46 11.57 00:05:11 20Vétérans 1 500
65 3943 MUSCIA CEDRIC 00:49:49 11.56 00:05:11 21Vétérans 1 492 JIA
66 3935 MARCHESE ALEXANDRE 00:49:54 11.54 00:05:12 21Séniors 484
67 13 WILLET NICOLAS 00:50:09 11.49 00:05:13 22Vétérans 1 476 BIERBERGEN
68 3929 NYSTENS CAROLE 00:50:11 11.48 00:05:14 3Ainées 1 468 RFCL
69 450 REMY SÉBASTIEN 00:50:16 11.46 00:05:14 22Séniors 460 PAS DE CLUB
70 3944 DHEUR MARTIAL 00:50:18 11.45 00:05:14 14Vétérans 2 452 SERAING ATHLETISME
71 3910 O CONNOCK CHRISTEL 00:50:20 11.44 00:05:15 1Dames 444 JIA
72 3975 MARTELANGE STEPHANIE 00:50:23 11.43 00:05:15 4Ainées 1 437 JIA
73 3955 CORATO VITTORINO 00:51:44 11.13 00:05:23 7Vétérans 3 429 NEUPRE AC
74 3985 PELZER FREDRIC 00:51:46 11.13 00:05:24 23Vétérans 1 421 HERV
75 3916 DE GOTTAL QUENTIN 00:51:53 11.1 00:05:24 24Vétérans 1 413
76 70 DARCIS JOËL 00:52:05 11.06 00:05:26 23Séniors 405 RDV RUN
77 3964 COLLIN JEAN LOUIS 00:52:14 11.03 00:05:26 8Vétérans 3 397 AC HERVE
78 5 MATHOT RICHARD 00:52:26 10.99 00:05:28 9Vétérans 3 389 RFCL ATHLETISME
79 52 PIFFET JOSS 00:52:27 10.98 00:05:28 24Séniors 381 PAS DE CLUB
80 140 CONSTANT STEVE 00:52:43 10.93 00:05:29 25Vétérans 1 373 PAS DE CLUB
81 58 RASSAA RAFIK 00:53:09 10.84 00:05:32 26Vétérans 1 365 PAS DE CLUB
82 3931 NEULENS CEDRIC 00:53:21 10.8 00:05:33 27Vétérans 1 357
83 3976 LAHAYE FRANCOIS 00:53:23 10.79 00:05:34 25Séniors 349
84 117 D AMICO SALVINO 00:53:29 10.77 00:05:34 28Vétérans 1 341 BIERBERGEN
85 3991 CARPENTIER THIERRY 00:53:31 10.76 00:05:34 1Vétérans 4 333 SERRUNNER
86 3989 LANGE CATHERINE 00:53:39 10.74 00:05:35 2Dames 325
87 3915 HENRY FLORINE 00:53:55 10.68 00:05:37 3Dames 317
88 123 ZINNEN LAETITIA 00:54:04 10.65 00:05:38 4Dames 310 PAS DE CLUB
89 3971 JORIS JONATHAN 00:54:07 10.64 00:05:38 26Séniors 302 TEAM SOMJA
90 43 RONCATO FABRICE 00:54:07 10.64 00:05:38 29Vétérans 1 294 CJPL
91 144 FERNANDEZ HERRERA BERNARD 00:54:38 10.54 00:05:41 15Vétérans 2 286 SODEXO RUN
92 118 SOMJA FLORENCE 00:54:50 10.5 00:05:43 5Dames 278 JOG IN ATTITUDE
93 3913 GREIMERS ALEXANDRE 00:55:32 10.37 00:05:47 27Séniors 270
94 23 LECLERCQ SANDRINE 00:55:33 10.37 00:05:47 6Dames 262 RDV RUN
95 477 DODÉMONT CÉLINE 00:55:46 10.33 00:05:49 5Ainées 1 254 RUN IN LIEGE
96 3911 LANGE PHILIPPE 00:55:47 10.33 00:05:49 16Vétérans 2 246 RUN IN LIEGE
97 3940 MULDERS LUC 00:56:14 10.24 00:05:51 10Vétérans 3 238 JCPMF
98 3946 VERSLEGERS ALAIN 00:56:22 10.22 00:05:52 17Vétérans 2 230 JCPMF VISE
99 203 DIO CALOGERO 00:56:41 10.16 00:05:54 30Vétérans 1 222 JIA
100 55 MANCINI MICHEL 00:56:50 10.13 00:05:55 2Vétérans 4 214 SERAING ATHLETISME
101 62 PATOUT ARNAUD 00:56:53 10.13 00:05:56 31Vétérans 1 206 LGS
102 3963 BODART VERONIQUE 00:56:57 10.11 00:05:56 6Ainées 1 198 NEUPRE AC
103 3962 THONET LILIAN 00:56:57 10.11 00:05:56 32Vétérans 1 190 NEUPRE AC
104 235 DASSY LUDOVIC 00:57:13 10.07 00:05:58 28Séniors 183 CJPL
105 3953 HENROUZ OLIVIER 00:57:34 10.01 00:05:60 29Séniors 175
106 3952 ZICOT GERARD 00:57:34 10.01 00:05:60 11Vétérans 3 167 RUN FLY
107 3920 DENIS VINCENT 00:59:19 9.71 00:06:11 30Séniors 159
108 3909 DUPONT ELENA 00:59:33 9.67 00:06:12 7Dames 151
109 76 VAN LAETHEM GABRIELLE 00:59:41 9.65 00:06:13 7Ainées 1 143 CJPL
110 3945 MEUNIER DAVID 00:59:58 9.61 00:06:15 18Vétérans 2 135
111 3948 JENNEN VICTORIA 01:00:11 9.57 00:06:16 8Dames 127
112 29 MERTENS CAROLINE 01:00:34 9.51 00:06:19 9Dames 119 PAS DE CLUB
113 3932 LAMBION LOIC 01:00:42 9.49 00:06:19 31Séniors 111
114 130 OLIVIER PASCAL 01:00:58 9.45 00:06:21 19Vétérans 2 103 PAS DE CLUB
115 147 RYSENAER JEAN 01:01:02 9.44 00:06:21 3Vétérans 4 95 PAS DE CLUB
116 75 KALIN THIERRY 01:01:04 9.43 00:06:22 20Vétérans 2 87 CJPL
117 488 NIZET PASCAL 01:04:17 8.96 00:06:42 21Vétérans 2 79 CJPL
118 143 LELOUP DOMINIQUE 01:04:35 8.92 00:06:44 3Ainées 2 71 RDV RUN
119 12 WASSON ANDRÉ 01:05:12 8.83 00:06:48 22Vétérans 2 63 JOG IN ATTITUDE
120 3970 FEKETE CAROLINE 01:05:16 8.83 00:06:48 4Ainées 2 56 JIA
121 3995 PINCIC MARKO 01:05:34 8.78 00:06:50 4Vétérans 4 48 SERRUNNER
122 45 ROBERTI HENRI 01:05:49 8.75 00:06:51 5Vétérans 4 40 ATHLETISME MEHAGNE CLUB
123 67 VAN LAAR CHRISTINE 01:06:03 8.72 00:06:53 5Ainées 2 32 CJPL
124 3982 MAURO CALOGERO 01:06:47 8.62 00:06:57 6Vétérans 4 24
125 25 SPADARO FILIPPO 01:08:47 8.37 00:07:010 23Vétérans 2 16 AUTRE
126 3983 NELHIEBEL GYULA 01:13:06 7.88 00:07:37 24Vétérans 2 8 LE MIEN
Image Sart Tilman 2022
Distance : 9.6 kms
126 coureurs
Normal Interclubs